sensor_id;sensor_type;location;lat;lon;timestamp;P1;durP1;ratioP1;P2;durP2;ratioP2
27013;SDS011;14556;52.222;4.510;2022-07-23T00:01:26;1.97;;;1.43;;
27013;SDS011;14556;52.222;4.510;2022-07-23T00:03:54;2.57;;;1.17;;
27013;SDS011;14556;52.222;4.510;2022-07-23T00:06:21;2.87;;;1.40;;
27013;SDS011;14556;52.222;4.510;2022-07-23T00:08:49;2.73;;;1.23;;
27013;SDS011;14556;52.222;4.510;2022-07-23T00:11:16;2.57;;;1.60;;
27013;SDS011;14556;52.222;4.510;2022-07-23T00:13:43;5.03;;;1.47;;
27013;SDS011;14556;52.222;4.510;2022-07-23T00:16:09;3.17;;;1.53;;
27013;SDS011;14556;52.222;4.510;2022-07-23T00:18:37;2.83;;;1.47;;
27013;SDS011;14556;52.222;4.510;2022-07-23T00:21:03;3.17;;;1.40;;
27013;SDS011;14556;52.222;4.510;2022-07-23T00:23:30;2.20;;;1.50;;
27013;SDS011;14556;52.222;4.510;2022-07-23T00:25:57;2.23;;;1.60;;
27013;SDS011;14556;52.222;4.510;2022-07-23T00:28:23;4.27;;;1.40;;
27013;SDS011;14556;52.222;4.510;2022-07-23T00:30:50;3.33;;;1.27;;
27013;SDS011;14556;52.222;4.510;2022-07-23T00:33:17;2.10;;;1.40;;
27013;SDS011;14556;52.222;4.510;2022-07-23T00:35:43;2.20;;;1.53;;
27013;SDS011;14556;52.222;4.510;2022-07-23T00:38:10;4.63;;;1.63;;
27013;SDS011;14556;52.222;4.510;2022-07-23T00:40:38;5.10;;;1.77;;
27013;SDS011;14556;52.222;4.510;2022-07-23T00:43:05;4.80;;;1.73;;
27013;SDS011;14556;52.222;4.510;2022-07-23T00:45:32;3.90;;;1.60;;
27013;SDS011;14556;52.222;4.510;2022-07-23T00:47:59;3.67;;;1.60;;
27013;SDS011;14556;52.222;4.510;2022-07-23T00:50:26;3.53;;;1.40;;
27013;SDS011;14556;52.222;4.510;2022-07-23T00:52:53;2.87;;;1.60;;
27013;SDS011;14556;52.222;4.510;2022-07-23T00:55:20;2.90;;;1.50;;
27013;SDS011;14556;52.222;4.510;2022-07-23T00:57:46;3.47;;;1.30;;
27013;SDS011;14556;52.222;4.510;2022-07-23T01:00:14;2.13;;;1.47;;
27013;SDS011;14556;52.222;4.510;2022-07-23T01:02:41;4.73;;;1.50;;
27013;SDS011;14556;52.222;4.510;2022-07-23T01:05:08;1.57;;;1.40;;
27013;SDS011;14556;52.222;4.510;2022-07-23T01:07:36;3.17;;;1.80;;
27013;SDS011;14556;52.222;4.510;2022-07-23T01:10:03;4.70;;;1.90;;
27013;SDS011;14556;52.222;4.510;2022-07-23T01:12:52;4.37;;;1.50;;
27013;SDS011;14556;52.222;4.510;2022-07-23T01:15:18;2.23;;;1.30;;
27013;SDS011;14556;52.222;4.510;2022-07-23T01:17:44;2.33;;;1.50;;
27013;SDS011;14556;52.222;4.510;2022-07-23T01:20:11;2.10;;;1.30;;
27013;SDS011;14556;52.222;4.510;2022-07-23T01:22:37;1.83;;;1.30;;
27013;SDS011;14556;52.222;4.510;2022-07-23T01:25:04;3.23;;;1.40;;
27013;SDS011;14556;52.222;4.510;2022-07-23T01:27:31;3.47;;;1.60;;
27013;SDS011;14556;52.222;4.510;2022-07-23T01:29:59;3.40;;;1.47;;
27013;SDS011;14556;52.222;4.510;2022-07-23T01:32:26;3.27;;;1.20;;
27013;SDS011;14556;52.222;4.510;2022-07-23T01:34:53;3.67;;;1.40;;
27013;SDS011;14556;52.222;4.510;2022-07-23T01:37:19;1.90;;;1.10;;
27013;SDS011;14556;52.222;4.510;2022-07-23T01:39:46;2.50;;;1.37;;
27013;SDS011;14556;52.222;4.510;2022-07-23T01:42:12;2.77;;;1.40;;
27013;SDS011;14556;52.222;4.510;2022-07-23T01:44:39;4.13;;;1.30;;
27013;SDS011;14556;52.222;4.510;2022-07-23T01:47:05;7.73;;;1.40;;
27013;SDS011;14556;52.222;4.510;2022-07-23T01:49:32;2.10;;;1.30;;
27013;SDS011;14556;52.222;4.510;2022-07-23T01:51:58;1.90;;;1.30;;
27013;SDS011;14556;52.222;4.510;2022-07-23T01:54:28;2.87;;;1.40;;
27013;SDS011;14556;52.222;4.510;2022-07-23T01:56:56;1.40;;;1.30;;
27013;SDS011;14556;52.222;4.510;2022-07-23T01:59:24;1.53;;;1.30;;
27013;SDS011;14556;52.222;4.510;2022-07-23T02:01:51;1.57;;;1.10;;
27013;SDS011;14556;52.222;4.510;2022-07-23T02:04:18;1.50;;;1.30;;
27013;SDS011;14556;52.222;4.510;2022-07-23T02:06:45;2.00;;;1.40;;
27013;SDS011;14556;52.222;4.510;2022-07-23T02:09:11;2.07;;;1.67;;
27013;SDS011;14556;52.222;4.510;2022-07-23T02:11:38;3.30;;;1.67;;
27013;SDS011;14556;52.222;4.510;2022-07-23T02:14:05;2.83;;;1.43;;
27013;SDS011;14556;52.222;4.510;2022-07-23T02:16:31;4.97;;;1.80;;
27013;SDS011;14556;52.222;4.510;2022-07-23T02:18:58;2.13;;;1.63;;
27013;SDS011;14556;52.222;4.510;2022-07-23T02:21:25;2.83;;;1.77;;
27013;SDS011;14556;52.222;4.510;2022-07-23T02:23:52;1.80;;;1.47;;
27013;SDS011;14556;52.222;4.510;2022-07-23T02:26:18;2.83;;;1.90;;
27013;SDS011;14556;52.222;4.510;2022-07-23T02:28:46;2.20;;;1.60;;
27013;SDS011;14556;52.222;4.510;2022-07-23T02:31:12;1.50;;;1.20;;
27013;SDS011;14556;52.222;4.510;2022-07-23T02:33:39;1.97;;;1.67;;
27013;SDS011;14556;52.222;4.510;2022-07-23T02:36:05;1.80;;;1.60;;
27013;SDS011;14556;52.222;4.510;2022-07-23T02:38:32;3.37;;;1.60;;
27013;SDS011;14556;52.222;4.510;2022-07-23T02:40:59;4.17;;;1.73;;
27013;SDS011;14556;52.222;4.510;2022-07-23T02:43:26;2.07;;;1.80;;
27013;SDS011;14556;52.222;4.510;2022-07-23T02:45:52;4.10;;;1.93;;
27013;SDS011;14556;52.222;4.510;2022-07-23T02:48:19;2.63;;;1.70;;
27013;SDS011;14556;52.222;4.510;2022-07-23T02:50:46;5.60;;;1.70;;
27013;SDS011;14556;52.222;4.510;2022-07-23T02:53:12;2.83;;;1.83;;
27013;SDS011;14556;52.222;4.510;2022-07-23T02:55:38;4.53;;;2.30;;
27013;SDS011;14556;52.222;4.510;2022-07-23T02:58:05;2.90;;;2.60;;
27013;SDS011;14556;52.222;4.510;2022-07-23T03:00:31;6.13;;;3.00;;
27013;SDS011;14556;52.222;4.510;2022-07-23T03:02:58;4.93;;;2.50;;
27013;SDS011;14556;52.222;4.510;2022-07-23T03:05:24;4.77;;;2.77;;
27013;SDS011;14556;52.222;4.510;2022-07-23T03:07:51;6.57;;;2.57;;
27013;SDS011;14556;52.222;4.510;2022-07-23T03:10:17;3.27;;;2.13;;
27013;SDS011;14556;52.222;4.510;2022-07-23T03:12:44;5.60;;;2.57;;
27013;SDS011;14556;52.222;4.510;2022-07-23T03:15:10;3.53;;;2.53;;
27013;SDS011;14556;52.222;4.510;2022-07-23T03:17:37;3.17;;;2.20;;
27013;SDS011;14556;52.222;4.510;2022-07-23T03:20:03;2.63;;;2.30;;
27013;SDS011;14556;52.222;4.510;2022-07-23T03:22:30;4.03;;;1.60;;
27013;SDS011;14556;52.222;4.510;2022-07-23T03:24:56;2.87;;;1.60;;
27013;SDS011;14556;52.222;4.510;2022-07-23T03:27:23;3.13;;;1.70;;
27013;SDS011;14556;52.222;4.510;2022-07-23T03:29:52;3.60;;;1.50;;
27013;SDS011;14556;52.222;4.510;2022-07-23T03:32:20;3.73;;;1.70;;
27013;SDS011;14556;52.222;4.510;2022-07-23T03:34:47;4.90;;;1.73;;
27013;SDS011;14556;52.222;4.510;2022-07-23T03:37:14;2.97;;;1.83;;
27013;SDS011;14556;52.222;4.510;2022-07-23T03:39:41;3.20;;;2.03;;
27013;SDS011;14556;52.222;4.510;2022-07-23T03:42:08;6.33;;;2.13;;
27013;SDS011;14556;52.222;4.510;2022-07-23T03:44:35;4.50;;;1.93;;
27013;SDS011;14556;52.222;4.510;2022-07-23T03:47:03;3.77;;;2.10;;
27013;SDS011;14556;52.222;4.510;2022-07-23T03:49:30;3.00;;;2.03;;
27013;SDS011;14556;52.222;4.510;2022-07-23T03:51:57;3.13;;;2.53;;
27013;SDS011;14556;52.222;4.510;2022-07-23T03:54:24;6.70;;;2.53;;
27013;SDS011;14556;52.222;4.510;2022-07-23T03:56:50;4.60;;;2.60;;
27013;SDS011;14556;52.222;4.510;2022-07-23T03:59:17;2.07;;;1.80;;
27013;SDS011;14556;52.222;4.510;2022-07-23T04:01:49;3.10;;;2.20;;
27013;SDS011;14556;52.222;4.510;2022-07-23T04:04:15;2.77;;;2.30;;
27013;SDS011;14556;52.222;4.510;2022-07-23T04:06:42;3.27;;;2.03;;
27013;SDS011;14556;52.222;4.510;2022-07-23T04:09:08;4.43;;;2.17;;
27013;SDS011;14556;52.222;4.510;2022-07-23T04:11:35;3.23;;;2.20;;
27013;SDS011;14556;52.222;4.510;2022-07-23T04:14:01;4.33;;;2.50;;
27013;SDS011;14556;52.222;4.510;2022-07-23T04:16:28;3.77;;;2.40;;
27013;SDS011;14556;52.222;4.510;2022-07-23T04:18:57;6.67;;;2.30;;
27013;SDS011;14556;52.222;4.510;2022-07-23T04:21:24;6.37;;;2.40;;
27013;SDS011;14556;52.222;4.510;2022-07-23T04:23:51;2.57;;;2.00;;
27013;SDS011;14556;52.222;4.510;2022-07-23T04:26:17;5.30;;;2.00;;
27013;SDS011;14556;52.222;4.510;2022-07-23T04:28:44;4.30;;;2.73;;
27013;SDS011;14556;52.222;4.510;2022-07-23T04:31:10;3.30;;;2.23;;
27013;SDS011;14556;52.222;4.510;2022-07-23T04:33:37;3.23;;;2.17;;
27013;SDS011;14556;52.222;4.510;2022-07-23T04:36:03;6.50;;;2.53;;
27013;SDS011;14556;52.222;4.510;2022-07-23T04:38:30;4.27;;;2.43;;
27013;SDS011;14556;52.222;4.510;2022-07-23T04:40:57;3.40;;;2.50;;
27013;SDS011;14556;52.222;4.510;2022-07-23T04:43:23;4.07;;;2.27;;
27013;SDS011;14556;52.222;4.510;2022-07-23T04:45:50;3.13;;;2.10;;
27013;SDS011;14556;52.222;4.510;2022-07-23T04:48:16;3.73;;;2.07;;
27013;SDS011;14556;52.222;4.510;2022-07-23T04:50:43;4.93;;;2.20;;
27013;SDS011;14556;52.222;4.510;2022-07-23T04:53:10;1.90;;;1.70;;
27013;SDS011;14556;52.222;4.510;2022-07-23T04:55:36;8.90;;;1.87;;
27013;SDS011;14556;52.222;4.510;2022-07-23T04:58:03;1.57;;;1.37;;
27013;SDS011;14556;52.222;4.510;2022-07-23T05:00:29;2.33;;;1.50;;
27013;SDS011;14556;52.222;4.510;2022-07-23T05:02:56;2.20;;;1.73;;
27013;SDS011;14556;52.222;4.510;2022-07-23T05:05:22;3.47;;;1.80;;
27013;SDS011;14556;52.222;4.510;2022-07-23T05:07:49;2.63;;;1.50;;
27013;SDS011;14556;52.222;4.510;2022-07-23T05:10:15;1.90;;;1.60;;
27013;SDS011;14556;52.222;4.510;2022-07-23T05:12:42;1.60;;;1.50;;
27013;SDS011;14556;52.222;4.510;2022-07-23T05:15:08;5.63;;;1.70;;
27013;SDS011;14556;52.222;4.510;2022-07-23T05:17:35;2.17;;;1.40;;
27013;SDS011;14556;52.222;4.510;2022-07-23T05:20:01;3.57;;;1.57;;
27013;SDS011;14556;52.222;4.510;2022-07-23T05:22:29;3.23;;;1.77;;
27013;SDS011;14556;52.222;4.510;2022-07-23T05:24:55;5.73;;;2.10;;
27013;SDS011;14556;52.222;4.510;2022-07-23T05:27:22;4.00;;;1.77;;
27013;SDS011;14556;52.222;4.510;2022-07-23T05:29:48;2.17;;;1.53;;
27013;SDS011;14556;52.222;4.510;2022-07-23T05:32:15;2.80;;;1.60;;
27013;SDS011;14556;52.222;4.510;2022-07-23T05:34:41;6.73;;;1.90;;
27013;SDS011;14556;52.222;4.510;2022-07-23T05:37:07;2.20;;;1.70;;
27013;SDS011;14556;52.222;4.510;2022-07-23T05:39:34;3.53;;;2.07;;
27013;SDS011;14556;52.222;4.510;2022-07-23T05:42:00;2.23;;;1.70;;
27013;SDS011;14556;52.222;4.510;2022-07-23T05:44:27;2.83;;;1.90;;
27013;SDS011;14556;52.222;4.510;2022-07-23T05:46:59;3.33;;;1.83;;
27013;SDS011;14556;52.222;4.510;2022-07-23T05:49:26;2.60;;;1.60;;
27013;SDS011;14556;52.222;4.510;2022-07-23T05:51:52;4.13;;;1.87;;
27013;SDS011;14556;52.222;4.510;2022-07-23T05:54:19;4.67;;;2.07;;
27013;SDS011;14556;52.222;4.510;2022-07-23T05:56:45;4.23;;;1.50;;
27013;SDS011;14556;52.222;4.510;2022-07-23T05:59:12;1.90;;;1.20;;
27013;SDS011;14556;52.222;4.510;2022-07-23T06:01:39;2.70;;;1.40;;
27013;SDS011;14556;52.222;4.510;2022-07-23T06:04:06;3.33;;;1.93;;
27013;SDS011;14556;52.222;4.510;2022-07-23T06:06:32;1.73;;;1.60;;
27013;SDS011;14556;52.222;4.510;2022-07-23T06:08:59;2.67;;;1.87;;
27013;SDS011;14556;52.222;4.510;2022-07-23T06:11:26;3.40;;;1.53;;
27013;SDS011;14556;52.222;4.510;2022-07-23T06:13:53;4.37;;;1.90;;
27013;SDS011;14556;52.222;4.510;2022-07-23T06:16:19;3.37;;;1.73;;
27013;SDS011;14556;52.222;4.510;2022-07-23T06:18:46;3.57;;;1.80;;
27013;SDS011;14556;52.222;4.510;2022-07-23T06:21:12;5.27;;;1.50;;
27013;SDS011;14556;52.222;4.510;2022-07-23T06:23:59;3.93;;;1.50;;
27013;SDS011;14556;52.222;4.510;2022-07-23T06:26:25;8.73;;;1.93;;
27013;SDS011;14556;52.222;4.510;2022-07-23T06:28:51;3.43;;;1.73;;
27013;SDS011;14556;52.222;4.510;2022-07-23T06:31:18;4.93;;;1.70;;
27013;SDS011;14556;52.222;4.510;2022-07-23T06:33:44;3.63;;;1.50;;
27013;SDS011;14556;52.222;4.510;2022-07-23T06:36:11;1.80;;;1.40;;
27013;SDS011;14556;52.222;4.510;2022-07-23T06:38:37;2.53;;;1.30;;
27013;SDS011;14556;52.222;4.510;2022-07-23T06:41:04;2.43;;;1.30;;
27013;SDS011;14556;52.222;4.510;2022-07-23T06:43:31;5.90;;;1.57;;
27013;SDS011;14556;52.222;4.510;2022-07-23T06:45:57;2.20;;;1.17;;
27013;SDS011;14556;52.222;4.510;2022-07-23T06:48:24;2.53;;;1.10;;
27013;SDS011;14556;52.222;4.510;2022-07-23T06:50:50;2.93;;;1.30;;
27013;SDS011;14556;52.222;4.510;2022-07-23T06:53:18;2.37;;;1.20;;
27013;SDS011;14556;52.222;4.510;2022-07-23T06:55:45;2.40;;;1.27;;
27013;SDS011;14556;52.222;4.510;2022-07-23T06:58:11;3.53;;;1.40;;
27013;SDS011;14556;52.222;4.510;2022-07-23T07:00:40;3.43;;;1.30;;
27013;SDS011;14556;52.222;4.510;2022-07-23T07:03:06;1.87;;;1.20;;
27013;SDS011;14556;52.222;4.510;2022-07-23T07:05:33;1.43;;;1.33;;
27013;SDS011;14556;52.222;4.510;2022-07-23T07:07:59;1.70;;;1.50;;
27013;SDS011;14556;52.222;4.510;2022-07-23T07:10:26;4.90;;;1.30;;
27013;SDS011;14556;52.222;4.510;2022-07-23T07:12:52;5.20;;;1.73;;
27013;SDS011;14556;52.222;4.510;2022-07-23T07:15:19;4.90;;;1.40;;
27013;SDS011;14556;52.222;4.510;2022-07-23T07:17:45;4.00;;;1.30;;
27013;SDS011;14556;52.222;4.510;2022-07-23T07:20:12;3.23;;;1.60;;
27013;SDS011;14556;52.222;4.510;2022-07-23T07:22:38;3.50;;;1.30;;
27013;SDS011;14556;52.222;4.510;2022-07-23T07:25:05;6.33;;;1.60;;
27013;SDS011;14556;52.222;4.510;2022-07-23T07:27:32;2.03;;;1.37;;
27013;SDS011;14556;52.222;4.510;2022-07-23T07:29:59;5.43;;;1.40;;
27013;SDS011;14556;52.222;4.510;2022-07-23T07:32:25;2.77;;;1.30;;
27013;SDS011;14556;52.222;4.510;2022-07-23T07:35:13;2.17;;;1.33;;
27013;SDS011;14556;52.222;4.510;2022-07-23T07:37:39;3.93;;;1.40;;
27013;SDS011;14556;52.222;4.510;2022-07-23T07:40:06;2.33;;;1.70;;
27013;SDS011;14556;52.222;4.510;2022-07-23T07:42:34;3.23;;;1.30;;
27013;SDS011;14556;52.222;4.510;2022-07-23T07:45:00;3.70;;;1.50;;
27013;SDS011;14556;52.222;4.510;2022-07-23T07:47:27;2.90;;;1.57;;
27013;SDS011;14556;52.222;4.510;2022-07-23T07:49:53;2.20;;;1.40;;
27013;SDS011;14556;52.222;4.510;2022-07-23T07:52:20;5.07;;;1.90;;
27013;SDS011;14556;52.222;4.510;2022-07-23T07:54:47;4.60;;;1.50;;
27013;SDS011;14556;52.222;4.510;2022-07-23T07:57:14;4.20;;;1.40;;
27013;SDS011;14556;52.222;4.510;2022-07-23T07:59:42;2.10;;;1.60;;
27013;SDS011;14556;52.222;4.510;2022-07-23T08:02:11;2.47;;;1.90;;
27013;SDS011;14556;52.222;4.510;2022-07-23T08:04:37;2.70;;;1.20;;
27013;SDS011;14556;52.222;4.510;2022-07-23T08:07:04;1.43;;;1.33;;
27013;SDS011;14556;52.222;4.510;2022-07-23T08:09:30;2.77;;;1.53;;
27013;SDS011;14556;52.222;4.510;2022-07-23T08:11:56;1.70;;;1.47;;
27013;SDS011;14556;52.222;4.510;2022-07-23T08:14:23;2.63;;;1.97;;
27013;SDS011;14556;52.222;4.510;2022-07-23T08:16:49;2.60;;;1.50;;
27013;SDS011;14556;52.222;4.510;2022-07-23T08:19:37;1.67;;;1.43;;
27013;SDS011;14556;52.222;4.510;2022-07-23T08:22:04;2.00;;;1.20;;
27013;SDS011;14556;52.222;4.510;2022-07-23T08:24:30;2.33;;;1.40;;
27013;SDS011;14556;52.222;4.510;2022-07-23T08:26:57;6.43;;;1.90;;
27013;SDS011;14556;52.222;4.510;2022-07-23T08:29:23;2.20;;;1.50;;
27013;SDS011;14556;52.222;4.510;2022-07-23T08:31:52;2.67;;;1.20;;
27013;SDS011;14556;52.222;4.510;2022-07-23T08:34:19;1.37;;;1.27;;
27013;SDS011;14556;52.222;4.510;2022-07-23T08:36:45;3.07;;;1.53;;
27013;SDS011;14556;52.222;4.510;2022-07-23T08:39:12;1.57;;;1.17;;
27013;SDS011;14556;52.222;4.510;2022-07-23T08:41:39;2.83;;;1.20;;
27013;SDS011;14556;52.222;4.510;2022-07-23T08:44:08;1.57;;;1.20;;
27013;SDS011;14556;52.222;4.510;2022-07-23T08:46:35;1.33;;;1.23;;
27013;SDS011;14556;52.222;4.510;2022-07-23T08:49:08;4.00;;;1.40;;
27013;SDS011;14556;52.222;4.510;2022-07-23T08:51:35;3.77;;;1.30;;
27013;SDS011;14556;52.222;4.510;2022-07-23T08:54:01;2.40;;;1.30;;
27013;SDS011;14556;52.222;4.510;2022-07-23T08:56:29;2.30;;;1.13;;
27013;SDS011;14556;52.222;4.510;2022-07-23T08:58:55;2.00;;;1.10;;
27013;SDS011;14556;52.222;4.510;2022-07-23T09:01:22;1.87;;;1.20;;
27013;SDS011;14556;52.222;4.510;2022-07-23T09:03:48;3.63;;;1.30;;
27013;SDS011;14556;52.222;4.510;2022-07-23T09:06:15;2.40;;;1.10;;
27013;SDS011;14556;52.222;4.510;2022-07-23T09:08:42;1.63;;;1.07;;
27013;SDS011;14556;52.222;4.510;2022-07-23T09:11:11;3.23;;;1.57;;
27013;SDS011;14556;52.222;4.510;2022-07-23T09:13:46;2.80;;;1.30;;
27013;SDS011;14556;52.222;4.510;2022-07-23T09:18:57;3.00;;;1.40;;
27013;SDS011;14556;52.222;4.510;2022-07-23T09:24:06;1.37;;;1.27;;
27013;SDS011;14556;52.222;4.510;2022-07-23T09:29:03;4.30;;;1.47;;
27013;SDS011;14556;52.222;4.510;2022-07-23T09:31:34;4.67;;;1.73;;
27013;SDS011;14556;52.222;4.510;2022-07-23T09:34:19;2.53;;;1.57;;
27013;SDS011;14556;52.222;4.510;2022-07-23T09:36:56;3.43;;;1.40;;
27013;SDS011;14556;52.222;4.510;2022-07-23T09:39:31;1.63;;;1.27;;
27013;SDS011;14556;52.222;4.510;2022-07-23T09:44:50;2.30;;;1.40;;
27013;SDS011;14556;52.222;4.510;2022-07-23T09:47:18;4.67;;;1.57;;
27013;SDS011;14556;52.222;4.510;2022-07-23T09:50:02;2.73;;;1.50;;
27013;SDS011;14556;52.222;4.510;2022-07-23T09:52:32;3.33;;;1.43;;
27013;SDS011;14556;52.222;4.510;2022-07-23T09:55:02;1.70;;;1.47;;
27013;SDS011;14556;52.222;4.510;2022-07-23T09:57:31;1.73;;;1.63;;
27013;SDS011;14556;52.222;4.510;2022-07-23T10:00:00;1.37;;;1.27;;
27013;SDS011;14556;52.222;4.510;2022-07-23T10:02:27;2.23;;;1.23;;
27013;SDS011;14556;52.222;4.510;2022-07-23T10:04:57;2.53;;;1.60;;
27013;SDS011;14556;52.222;4.510;2022-07-23T10:07:25;1.43;;;1.33;;
27013;SDS011;14556;52.222;4.510;2022-07-23T10:09:53;4.17;;;1.30;;
27013;SDS011;14556;52.222;4.510;2022-07-23T10:12:20;3.00;;;1.50;;
27013;SDS011;14556;52.222;4.510;2022-07-23T10:14:46;3.07;;;1.33;;
27013;SDS011;14556;52.222;4.510;2022-07-23T10:17:14;1.73;;;1.53;;
27013;SDS011;14556;52.222;4.510;2022-07-23T10:19:41;3.27;;;1.93;;
27013;SDS011;14556;52.222;4.510;2022-07-23T10:22:10;1.63;;;1.30;;
27013;SDS011;14556;52.222;4.510;2022-07-23T10:24:50;1.73;;;1.50;;
27013;SDS011;14556;52.222;4.510;2022-07-23T10:33:05;2.63;;;1.10;;
27013;SDS011;14556;52.222;4.510;2022-07-23T10:35:49;3.67;;;1.87;;
27013;SDS011;14556;52.222;4.510;2022-07-23T10:38:24;3.57;;;1.80;;
27013;SDS011;14556;52.222;4.510;2022-07-23T10:40:54;3.73;;;1.80;;
27013;SDS011;14556;52.222;4.510;2022-07-23T10:43:23;1.77;;;1.30;;
27013;SDS011;14556;52.222;4.510;2022-07-23T10:45:49;3.40;;;1.80;;
27013;SDS011;14556;52.222;4.510;2022-07-23T10:48:17;2.60;;;1.50;;
27013;SDS011;14556;52.222;4.510;2022-07-23T10:51:06;3.57;;;1.60;;
27013;SDS011;14556;52.222;4.510;2022-07-23T10:53:57;2.27;;;1.37;;
27013;SDS011;14556;52.222;4.510;2022-07-23T10:59:17;2.97;;;1.70;;
27013;SDS011;14556;52.222;4.510;2022-07-23T11:01:44;2.90;;;1.30;;
27013;SDS011;14556;52.222;4.510;2022-07-23T11:04:11;7.33;;;1.50;;
27013;SDS011;14556;52.222;4.510;2022-07-23T11:11:50;2.87;;;2.00;;
27013;SDS011;14556;52.222;4.510;2022-07-23T11:25:08;5.90;;;1.40;;
27013;SDS011;14556;52.222;4.510;2022-07-23T11:27:38;3.20;;;1.50;;
27013;SDS011;14556;52.222;4.510;2022-07-23T11:30:09;4.73;;;1.63;;
27013;SDS011;14556;52.222;4.510;2022-07-23T11:32:38;2.67;;;1.20;;
27013;SDS011;14556;52.222;4.510;2022-07-23T11:35:19;3.23;;;1.43;;
27013;SDS011;14556;52.222;4.510;2022-07-23T11:37:48;4.83;;;1.60;;
27013;SDS011;14556;52.222;4.510;2022-07-23T11:40:16;3.10;;;1.73;;
27013;SDS011;14556;52.222;4.510;2022-07-23T11:42:53;2.30;;;1.40;;
27013;SDS011;14556;52.222;4.510;2022-07-23T11:45:22;1.93;;;1.70;;
27013;SDS011;14556;52.222;4.510;2022-07-23T11:47:50;2.37;;;1.40;;
27013;SDS011;14556;52.222;4.510;2022-07-23T11:50:17;2.30;;;1.53;;
27013;SDS011;14556;52.222;4.510;2022-07-23T11:52:43;3.87;;;1.60;;
27013;SDS011;14556;52.222;4.510;2022-07-23T11:55:11;5.10;;;2.07;;
27013;SDS011;14556;52.222;4.510;2022-07-23T11:57:39;3.37;;;1.70;;
27013;SDS011;14556;52.222;4.510;2022-07-23T12:00:08;4.13;;;1.40;;
27013;SDS011;14556;52.222;4.510;2022-07-23T12:02:38;6.17;;;1.90;;
27013;SDS011;14556;52.222;4.510;2022-07-23T12:05:16;2.77;;;1.70;;
27013;SDS011;14556;52.222;4.510;2022-07-23T12:07:44;2.37;;;1.60;;
27013;SDS011;14556;52.222;4.510;2022-07-23T12:10:22;4.03;;;1.67;;
27013;SDS011;14556;52.222;4.510;2022-07-23T12:12:59;4.97;;;1.70;;
27013;SDS011;14556;52.222;4.510;2022-07-23T12:15:31;4.50;;;1.93;;
27013;SDS011;14556;52.222;4.510;2022-07-23T12:18:09;3.20;;;1.77;;
27013;SDS011;14556;52.222;4.510;2022-07-23T12:20:39;4.00;;;1.40;;
27013;SDS011;14556;52.222;4.510;2022-07-23T12:23:08;4.03;;;2.30;;
27013;SDS011;14556;52.222;4.510;2022-07-23T12:25:37;4.87;;;2.10;;
27013;SDS011;14556;52.222;4.510;2022-07-23T12:28:09;2.73;;;1.63;;
27013;SDS011;14556;52.222;4.510;2022-07-23T12:30:42;2.60;;;1.37;;
27013;SDS011;14556;52.222;4.510;2022-07-23T12:33:15;5.67;;;1.47;;
27013;SDS011;14556;52.222;4.510;2022-07-23T12:36:03;1.37;;;1.20;;
27013;SDS011;14556;52.222;4.510;2022-07-23T12:38:41;3.07;;;1.67;;
27013;SDS011;14556;52.222;4.510;2022-07-23T12:41:10;2.13;;;1.60;;
27013;SDS011;14556;52.222;4.510;2022-07-23T12:43:37;2.13;;;1.50;;
27013;SDS011;14556;52.222;4.510;2022-07-23T12:48:50;3.00;;;1.37;;
27013;SDS011;14556;52.222;4.510;2022-07-23T12:51:20;5.63;;;1.27;;
27013;SDS011;14556;52.222;4.510;2022-07-23T12:53:54;1.87;;;1.40;;
27013;SDS011;14556;52.222;4.510;2022-07-23T12:56:33;3.73;;;1.33;;
27013;SDS011;14556;52.222;4.510;2022-07-23T13:01:32;2.33;;;1.07;;
27013;SDS011;14556;52.222;4.510;2022-07-23T13:04:10;4.90;;;1.40;;
27013;SDS011;14556;52.222;4.510;2022-07-23T13:06:49;2.57;;;1.57;;
27013;SDS011;14556;52.222;4.510;2022-07-23T13:09:18;4.20;;;2.10;;
27013;SDS011;14556;52.222;4.510;2022-07-23T13:11:51;1.53;;;1.13;;
27013;SDS011;14556;52.222;4.510;2022-07-23T13:14:18;2.93;;;1.37;;
27013;SDS011;14556;52.222;4.510;2022-07-23T13:16:47;3.70;;;1.50;;
27013;SDS011;14556;52.222;4.510;2022-07-23T13:19:14;2.43;;;1.50;;
27013;SDS011;14556;52.222;4.510;2022-07-23T13:21:44;2.47;;;1.07;;
27013;SDS011;14556;52.222;4.510;2022-07-23T13:24:11;1.67;;;1.37;;
27013;SDS011;14556;52.222;4.510;2022-07-23T13:26:39;7.23;;;1.40;;
27013;SDS011;14556;52.222;4.510;2022-07-23T13:29:06;3.40;;;2.00;;
27013;SDS011;14556;52.222;4.510;2022-07-23T13:31:35;3.27;;;1.60;;
27013;SDS011;14556;52.222;4.510;2022-07-23T13:34:04;1.37;;;1.27;;
27013;SDS011;14556;52.222;4.510;2022-07-23T13:36:30;2.60;;;1.40;;
27013;SDS011;14556;52.222;4.510;2022-07-23T13:38:57;2.03;;;1.20;;
27013;SDS011;14556;52.222;4.510;2022-07-23T13:41:25;2.97;;;1.27;;
27013;SDS011;14556;52.222;4.510;2022-07-23T13:43:51;3.00;;;1.50;;
27013;SDS011;14556;52.222;4.510;2022-07-23T13:46:18;2.40;;;1.43;;
27013;SDS011;14556;52.222;4.510;2022-07-23T13:48:46;3.47;;;1.33;;
27013;SDS011;14556;52.222;4.510;2022-07-23T13:51:13;3.00;;;1.53;;
27013;SDS011;14556;52.222;4.510;2022-07-23T13:53:39;2.33;;;1.30;;
27013;SDS011;14556;52.222;4.510;2022-07-23T13:56:06;1.30;;;1.20;;
27013;SDS011;14556;52.222;4.510;2022-07-23T13:58:32;3.60;;;1.40;;
27013;SDS011;14556;52.222;4.510;2022-07-23T14:00:59;3.37;;;1.63;;
27013;SDS011;14556;52.222;4.510;2022-07-23T14:03:25;4.33;;;1.80;;
27013;SDS011;14556;52.222;4.510;2022-07-23T14:05:52;3.80;;;1.90;;
27013;SDS011;14556;52.222;4.510;2022-07-23T14:08:22;4.23;;;1.80;;
27013;SDS011;14556;52.222;4.510;2022-07-23T14:10:49;2.37;;;1.90;;
27013;SDS011;14556;52.222;4.510;2022-07-23T14:13:15;2.90;;;1.23;;
27013;SDS011;14556;52.222;4.510;2022-07-23T14:15:42;1.80;;;1.67;;
27013;SDS011;14556;52.222;4.510;2022-07-23T14:18:08;6.30;;;1.57;;
27013;SDS011;14556;52.222;4.510;2022-07-23T14:20:35;2.00;;;1.50;;
27013;SDS011;14556;52.222;4.510;2022-07-23T14:23:03;6.40;;;1.83;;
27013;SDS011;14556;52.222;4.510;2022-07-23T14:25:49;3.93;;;2.00;;
27013;SDS011;14556;52.222;4.510;2022-07-23T14:28:16;4.70;;;1.80;;
27013;SDS011;14556;52.222;4.510;2022-07-23T14:30:45;4.73;;;1.93;;
27013;SDS011;14556;52.222;4.510;2022-07-23T14:33:12;3.20;;;1.83;;
27013;SDS011;14556;52.222;4.510;2022-07-23T14:35:42;4.97;;;1.77;;
27013;SDS011;14556;52.222;4.510;2022-07-23T14:38:09;3.90;;;1.60;;
27013;SDS011;14556;52.222;4.510;2022-07-23T14:40:39;2.47;;;1.80;;
27013;SDS011;14556;52.222;4.510;2022-07-23T14:43:05;2.83;;;2.40;;
27013;SDS011;14556;52.222;4.510;2022-07-23T14:45:35;4.17;;;1.73;;
27013;SDS011;14556;52.222;4.510;2022-07-23T14:48:02;2.60;;;1.63;;
27013;SDS011;14556;52.222;4.510;2022-07-23T14:50:29;2.20;;;1.67;;
27013;SDS011;14556;52.222;4.510;2022-07-23T14:52:55;6.40;;;2.20;;
27013;SDS011;14556;52.222;4.510;2022-07-23T14:55:21;4.30;;;1.97;;
27013;SDS011;14556;52.222;4.510;2022-07-23T14:57:49;5.10;;;2.30;;
27013;SDS011;14556;52.222;4.510;2022-07-23T15:00:16;5.77;;;2.20;;
27013;SDS011;14556;52.222;4.510;2022-07-23T15:02:49;4.27;;;1.80;;
27013;SDS011;14556;52.222;4.510;2022-07-23T15:05:20;3.77;;;1.80;;
27013;SDS011;14556;52.222;4.510;2022-07-23T15:07:47;2.63;;;1.77;;
27013;SDS011;14556;52.222;4.510;2022-07-23T15:10:14;3.73;;;1.80;;
27013;SDS011;14556;52.222;4.510;2022-07-23T15:12:45;4.57;;;1.90;;
27013;SDS011;14556;52.222;4.510;2022-07-23T15:15:12;4.23;;;1.50;;
27013;SDS011;14556;52.222;4.510;2022-07-23T15:17:39;2.87;;;2.00;;
27013;SDS011;14556;52.222;4.510;2022-07-23T15:20:06;4.83;;;1.97;;
27013;SDS011;14556;52.222;4.510;2022-07-23T15:22:34;3.30;;;1.60;;
27013;SDS011;14556;52.222;4.510;2022-07-23T15:25:01;3.90;;;1.90;;
27013;SDS011;14556;52.222;4.510;2022-07-23T15:27:27;2.40;;;2.20;;
27013;SDS011;14556;52.222;4.510;2022-07-23T15:29:56;5.50;;;1.80;;
27013;SDS011;14556;52.222;4.510;2022-07-23T15:32:22;2.57;;;1.60;;
27013;SDS011;14556;52.222;4.510;2022-07-23T15:34:53;4.13;;;1.90;;